Nobe, West Virginia
Current Conditions -  °F | °C
As of 12:53 PM on Friday 31 Oct 2014 (Local Time) from KPKB Reporting Station
Light Rain Light Rain  
Wind Chill: 45°   Ceiling: 1900
Heat Index: 45°   Visibility: 10mi
Dew Point: 38°   Wind: 0mph
Humidity: 76%   Direction: NA
Pressure: 29.95"   Gusts: NA
Location:  38.9756°N, 80.9915°W
Report Text: KPKB 311653Z 00000KT 10SM -RA BKN019 BKN023 OVC043 07/03 A2995 RMK AO2 SLP144 P0001 T00720033
Loading
Personal Weather Stations






























Interactive Weather Map
Tropical Storm Tracking
New forecast layout! Learn more

10-Day Weather Forecast

Advertisements
Track Severe Weather on mobile